Time;durP1;ratioP1;P1;durP2;ratioP2;P2;SDS_P1;SDS_P2;PMS_P1;PMS_P2;Temp;Humidity;BMP_temperature;BMP_pressure;BME280_temperature;BME280_humidity;BME280_pressure;Samples;Min_cycle;Max_cycle;Signal;HPM_P1;HPM_P2
2021/03/12 00:03:36;;;;;;;22.17;3.30;;;;;;;6.33;90.67;100361.59;12821551;23;20423;-78
2021/03/12 00:08:44;;;;;;;19.33;2.60;;;;;;;6.31;92.28;100379.94;12821231;23;20075;-77
2021/03/12 00:13:44;;;;;;;21.13;3.00;;;;;;;6.69;91.65;100437.75;12845927;23;20294;-77
2021/03/12 00:18:45;;;;;;;11.13;2.45;;;;;;;6.40;92.39;100446.13;12847542;23;20012;-76
2021/03/12 00:23:45;;;;;;;21.05;2.95;;;;;;;6.35;93.47;100461.34;12847656;23;20040;-76
2021/03/12 00:28:46;;;;;;;15.70;2.05;;;;;;;6.30;94.24;100475.03;12848747;23;20017;-76
2021/03/12 00:33:46;;;;;;;14.15;2.47;;;;;;;6.25;94.63;100483.28;12846210;23;20023;-76
2021/03/12 00:38:47;;;;;;;21.17;3.63;;;;;;;6.03;94.71;100457.72;12821304;23;20021;-76
2021/03/12 00:43:47;;;;;;;17.67;2.65;;;;;;;6.15;94.61;100489.13;12845583;23;20027;-76
2021/03/12 00:48:48;;;;;;;22.10;2.97;;;;;;;5.97;95.33;100483.19;12845290;23;20066;-77
2021/03/12 00:53:48;;;;;;;18.85;2.65;;;;;;;5.85;94.90;100462.50;12795323;23;20016;-75
2021/03/12 00:58:49;;;;;;;18.15;2.40;;;;;;;5.80;95.48;100488.78;12844570;23;20013;-74
2021/03/12 01:03:49;;;;;;;16.13;2.42;;;;;;;5.49;94.60;100431.88;12820041;23;20036;-76
2021/03/12 01:08:50;;;;;;;11.45;2.42;;;;;;;5.72;94.99;100482.41;12794420;23;20016;-76
2021/03/12 01:13:51;;;;;;;20.20;2.55;;;;;;;5.95;95.22;100532.94;12846215;23;20001;-76
2021/03/12 01:18:52;;;;;;;27.13;3.88;;;;;;;5.48;94.89;100483.94;12820313;23;20032;-76
2021/03/12 01:23:52;;;;;;;22.27;2.80;;;;;;;6.05;94.97;100548.63;12819977;23;20332;-77
2021/03/12 01:28:53;;;;;;;12.88;2.65;;;;;;;5.98;95.26;100559.91;12844631;23;20021;-76
2021/03/12 01:33:53;;;;;;;15.77;3.05;;;;;;;5.60;95.23;100506.53;12819215;23;20015;-76
2021/03/12 01:38:54;;;;;;;18.02;2.47;;;;;;;5.31;94.80;100468.03;12843605;23;20013;-76
2021/03/12 01:43:54;;;;;;;17.10;2.10;;;;;;;5.85;95.38;100545.66;12844625;23;20104;-75
2021/03/12 01:48:55;;;;;;;13.10;2.50;;;;;;;5.71;95.08;100539.81;12846361;23;20391;-76
2021/03/12 01:53:55;;;;;;;15.77;2.53;;;;;;;5.40;95.61;100503.56;12845676;23;20404;-76
2021/03/12 01:58:56;;;;;;;13.98;2.55;;;;;;;5.27;95.61;100493.97;12819554;23;20096;-77
2021/03/12 02:03:56;;;;;;;18.80;2.20;;;;;;;5.76;95.74;100569.09;12794727;23;20013;-77
2021/03/12 02:08:57;;;;;;;18.58;2.67;;;;;;;5.30;95.55;100504.78;12818474;23;20008;-77
2021/03/12 02:14:10;;;;;;;17.55;2.42;;;;;;;5.27;95.43;100499.31;12792686;23;20019;-77
2021/03/12 02:19:40;;;;;;;16.52;2.53;;;;;;;5.70;95.73;100570.44;12811366;23;20022;-77
2021/03/12 02:24:44;;;;;;;10.18;2.10;;;;;;;5.40;96.53;100519.66;12800851;23;20075;-76
2021/03/12 02:29:49;;;;;;;19.75;2.67;;;;;;;5.27;98.34;100515.41;12816305;23;20015;-76
2021/03/12 02:34:50;;;;;;;18.40;2.70;;;;;;;5.62;97.78;100579.34;12816679;23;20013;-77
2021/03/12 02:39:58;;;;;;;17.48;2.08;;;;;;;5.59;97.54;100580.03;12842330;23;20008;-75
2021/03/12 02:44:59;;;;;;;12.27;2.38;;;;;;;5.55;97.81;100579.13;12817165;23;20741;-76
2021/03/12 02:50:00;;;;;;;16.70;2.73;;;;;;;5.60;98.34;100592.34;12816802;23;20111;-76
2021/03/12 02:55:01;;;;;;;17.83;2.70;;;;;;;5.15;98.63;100539.44;12818210;23;20008;-75
2021/03/12 03:00:05;;;;;;;20.45;3.90;;;;;;;5.48;99.12;100580.47;12817950;23;20016;-76
2021/03/12 03:05:06;;;;;;;26.08;3.25;;;;;;;5.37;99.68;100546.34;12816697;23;20051;-76
2021/03/12 03:10:09;;;;;;;12.82;2.63;;;;;;;5.53;100.00;100603.59;12817699;23;20016;-75
2021/03/12 03:15:10;;;;;;;15.90;2.88;;;;;;;5.07;99.67;100517.78;12815119;23;20032;-76
2021/03/12 03:20:13;;;;;;;19.00;4.28;;;;;;;5.19;99.42;100549.19;12817392;23;20008;-75
2021/03/12 03:25:14;;;;;;;16.15;3.00;;;;;;;5.16;99.83;100562.47;12793743;23;20035;-76
2021/03/12 03:30:15;;;;;;;17.85;3.08;;;;;;;5.41;100.00;100596.31;12841502;23;20019;-76
2021/03/12 03:35:16;;;;;;;20.40;2.97;;;;;;;5.05;100.00;100540.66;12816190;23;20044;-76
2021/03/12 03:40:16;;;;;;;17.10;2.42;;;;;;;5.17;100.00;100596.19;12817200;23;20008;-75
2021/03/12 03:45:20;;;;;;;18.77;3.20;;;;;;;5.04;100.00;100598.81;12816929;23;20012;-75
2021/03/12 03:50:21;;;;;;;20.58;3.65;;;;;;;5.04;100.00;100617.56;12842846;23;20012;-75
2021/03/12 03:55:24;;;;;;;14.75;3.20;;;;;;;4.92;100.00;100606.78;12843835;23;20091;-75
2021/03/12 04:00:25;;;;;;;15.75;3.05;;;;;;;4.96;100.00;100622.97;12843251;23;20023;-75
2021/03/12 04:05:26;;;;;;;22.15;3.25;;;;;;;4.59;100.00;100580.69;12816485;23;20348;-75
2021/03/12 04:10:27;;;;;;;18.98;3.03;;;;;;;4.49;100.00;100566.88;12842095;23;20005;-75
2021/03/12 04:15:28;;;;;;;16.15;3.08;;;;;;;4.61;100.00;100581.16;12817254;23;20083;-75
2021/03/12 04:20:28;;;;;;;28.38;3.45;;;;;;;4.68;100.00;100606.63;12844237;23;20008;-75
2021/03/12 04:25:29;;;;;;;12.90;2.50;;;;;;;4.63;100.00;100572.78;12820123;23;20071;-75
2021/03/12 04:30:30;;;;;;;21.13;4.22;;;;;;;4.85;100.00;100622.59;12798301;23;20018;-75
2021/03/12 04:35:30;;;;;;;17.52;3.38;;;;;;;4.57;100.00;100569.53;12819274;23;20012;-75
2021/03/12 04:40:31;;;;;;;19.23;4.25;;;;;;;4.55;100.00;100550.31;12819298;23;20011;-75
2021/03/12 04:45:32;;;;;;;22.13;4.30;;;;;;;4.31;99.85;100518.06;12847081;23;20066;-76
2021/03/12 04:50:35;;;;;;;24.60;4.00;;;;;;;4.91;99.55;100615.91;12822010;23;20008;-75
2021/03/12 04:55:36;;;;;;;19.88;2.85;;;;;;;4.56;99.72;100567.97;12847087;23;20328;-75
2021/03/12 05:00:37;;;;;;;23.42;4.00;;;;;;;4.47;100.00;100559.19;12845007;23;20420;-75
2021/03/12 05:05:38;;;;;;;19.35;5.47;;;;;;;4.90;100.00;100635.78;12821157;23;20028;-75
2021/03/12 05:10:49;;;;;;;24.38;4.03;;;;;;;4.80;100.00;100598.69;12819301;23;20313;-73
2021/03/12 05:15:50;;;;;;;38.40;4.95;;;;;;;4.62;100.00;100566.66;12794513;23;20052;-73
2021/03/12 05:20:51;;;;;;;26.05;4.97;;;;;;;4.88;100.00;100619.25;12818891;23;20011;-76
2021/03/12 05:25:52;;;;;;;20.17;4.68;;;;;;;5.02;100.00;100643.88;12795032;23;20019;-78
2021/03/12 05:30:52;;;;;;;29.40;4.65;;;;;;;4.90;100.00;100622.41;12827978;23;20015;-77
2021/03/12 05:35:53;;;;;;;22.73;4.57;;;;;;;4.85;100.00;100606.53;12844114;23;20019;-78
2021/03/12 05:40:53;;;;;;;24.45;4.20;;;;;;;4.93;100.00;100602.97;12843674;23;20026;-77
2021/03/12 05:45:54;;;;;;;22.35;4.32;;;;;;;5.02;100.00;100622.47;12818698;23;20019;-78
2021/03/12 05:50:59;;;;;;;31.27;4.95;;;;;;;5.03;100.00;100629.41;12817915;23;20415;-78
2021/03/12 05:56:00;;;;;;;27.85;4.88;;;;;;;4.61;100.00;100549.03;12844418;23;20067;-78
2021/03/12 06:01:01;;;;;;;29.58;4.80;;;;;;;4.61;100.00;100542.88;12844713;23;20043;-79
2021/03/12 06:06:03;;;;;;;34.40;4.85;;;;;;;4.93;100.00;100602.22;12817443;23;20559;-78
2021/03/12 06:11:04;;;;;;;;;;;;;;;5.13;100.00;100617.50;12844694;23;20008;-77
2021/03/12 06:16:20;;;;;;;17.60;2.92;;;;;;;4.65;100.00;100533.84;12843314;23;19915;-80
2021/03/12 06:21:28;;;;;;;21.23;3.60;;;;;;;5.15;100.00;100609.13;12845687;23;20066;-79
2021/03/12 06:26:45;;;;;;;23.25;4.40;;;;;;;4.98;100.00;100567.97;12841848;23;20005;-78
2021/03/12 06:31:50;;;;;;;24.52;3.70;;;;;;;5.38;100.00;100618.38;12844468;23;20050;-78
2021/03/12 06:36:51;;;;;;;23.85;4.22;;;;;;;5.47;100.00;100627.13;12769569;23;20436;-78
2021/03/12 06:41:51;;;;;;;24.75;3.78;;;;;;;5.17;100.00;100551.41;12792722;23;20035;-77
2021/03/12 06:46:52;;;;;;;21.13;3.55;;;;;;;5.66;98.85;100612.44;12766285;23;20527;-76
2021/03/12 06:51:59;;;;;;;20.30;3.25;;;;;;;5.83;98.71;100617.66;12816781;23;20038;-77
2021/03/12 06:57:17;;;;;;;24.13;4.35;;;;;;;5.53;98.17;100565.25;12819786;23;20040;-77
2021/03/12 07:02:28;;;;;;;22.33;3.70;;;;;;;5.66;97.88;100569.53;12816547;23;20051;-77
2021/03/12 07:07:39;;;;;;;31.30;4.35;;;;;;;6.00;97.32;100599.81;12844232;23;20066;-76
2021/03/12 07:12:46;;;;;;;33.78;5.35;;;;;;;6.14;96.71;100600.28;12843746;23;20600;-76
2021/03/12 07:17:47;;;;;;;30.10;4.85;;;;;;;5.74;96.42;100533.81;12844396;23;20356;-76
2021/03/12 07:22:49;;;;;;;27.17;3.75;;;;;;;5.78;95.70;100534.69;12842886;23;20013;-78
2021/03/12 07:27:51;;;;;;;22.85;3.58;;;;;;;6.16;96.29;100584.59;12817318;23;20016;-78
2021/03/12 07:32:53;;;;;;;26.30;3.85;;;;;;;6.30;95.83;100595.81;12816637;23;20305;-78
2021/03/12 07:37:55;;;;;;;20.80;3.70;;;;;;;6.20;96.37;100577.47;12816414;23;20067;-77
2021/03/12 07:42:56;;;;;;;21.23;3.73;;;;;;;5.93;97.00;100526.00;12841983;23;20005;-77
2021/03/12 07:47:57;;;;;;;26.75;4.00;;;;;;;5.82;97.63;100503.41;12791835;23;20088;-77
2021/03/12 07:52:58;;;;;;;21.75;3.70;;;;;;;6.00;98.85;100540.81;12843918;23;20435;-77
2021/03/12 07:57:58;;;;;;;30.15;5.35;;;;;;;6.09;99.44;100534.19;12817331;23;20076;-76
2021/03/12 08:03:01;;;;;;;32.40;5.07;;;;;;;6.43;99.83;100568.97;12847771;23;20382;-78
2021/03/12 08:08:02;;;;;;;38.60;5.93;;;;;;;6.40;100.00;100553.50;12849697;23;20444;-77
2021/03/12 08:13:29;;;;;;;21.45;4.22;;;;;;;6.81;99.58;100557.03;12847501;23;20008;-77
2021/03/12 08:18:29;;;;;;;26.65;4.40;;;;;;;6.62;97.75;100491.25;12819896;23;20023;-77
2021/03/12 08:23:34;;;;;;;26.15;4.90;;;;;;;7.22;96.92;100558.56;12846785;23;20059;-77
2021/03/12 08:28:34;;;;;;;32.42;5.78;;;;;;;6.71;97.22;100491.91;12846051;23;20009;-77
2021/03/12 08:33:38;;;;;;;29.05;5.80;;;;;;;6.86;96.80;100495.00;12821070;23;20600;-79
2021/03/12 08:38:39;;;;;;;33.83;5.28;;;;;;;7.13;95.97;100541.81;12817570;23;20142;-77
2021/03/12 08:43:46;;;;;;;20.80;3.70;;;;;;;6.89;95.41;100488.91;12792444;23;20004;-77
2021/03/12 08:48:48;;;;;;;27.77;4.80;;;;;;;7.11;94.31;100517.94;12819670;23;20009;-78
2021/03/12 08:53:51;;;;;;;23.03;3.67;;;;;;;7.44;92.67;100530.34;12845818;23;20013;-78
2021/03/12 08:58:52;;;;;;;27.80;4.72;;;;;;;7.43;91.62;100491.09;12846546;23;20430;-77
2021/03/12 09:03:55;;;;;;;27.98;4.78;;;;;;;7.54;91.39;100513.69;12846606;23;20005;-77
2021/03/12 09:08:56;;;;;;;20.15;4.60;;;;;;;6.91;91.81;100459.81;12819787;23;20011;-77
2021/03/12 09:13:59;;;;;;;27.60;4.28;;;;;;;6.77;93.02;100471.75;12845654;23;20032;-77
2021/03/12 09:18:59;;;;;;;;;;;;;;;7.02;99.62;100536.13;12844689;23;20024;-77
2021/03/12 09:24:03;;;;;;;29.05;5.40;;;;;;;6.69;100.00;100512.94;12847351;23;20390;-76
2021/03/12 09:29:05;;;;;;;33.15;5.47;;;;;;;6.75;100.00;100516.97;12818830;23;20255;-76
2021/03/12 09:34:09;;;;;;;25.67;5.40;;;;;;;6.89;100.00;100499.66;12846743;23;20016;-75
2021/03/12 09:39:21;;;;;;;31.27;6.20;;;;;;;6.77;100.00;100493.25;12818628;23;20151;-75
2021/03/12 09:44:23;;;;;;;27.35;5.15;;;;;;;6.87;100.00;100496.56;12846952;23;20013;-76
2021/03/12 09:49:30;;;;;;;26.60;5.33;;;;;;;6.93;100.00;100500.56;12819065;23;20012;-76
2021/03/12 09:54:31;;;;;;;35.05;6.88;;;;;;;6.94;100.00;100488.69;12844673;23;20024;-77
2021/03/12 09:59:35;;;;;;;27.55;4.82;;;;;;;7.16;100.00;100490.81;12818458;23;20027;-75
2021/03/12 10:04:41;;;;;;;24.33;5.13;;;;;;;6.93;98.17;100414.56;12839995;23;20621;-77
2021/03/12 10:09:46;;;;;;;23.90;4.82;;;;;;;6.96;96.23;100424.63;12841245;23;20453;-76
2021/03/12 10:14:48;;;;;;;22.73;4.88;;;;;;;7.48;95.25;100482.81;12814190;23;20007;-76
2021/03/12 10:19:58;;;;;;;24.58;6.18;;;;;;;7.47;95.62;100470.47;12814977;23;20443;-77
2021/03/12 10:25:04;;;;;;;22.00;4.85;;;;;;;7.46;94.49;100490.44;12839170;23;20016;-77
2021/03/12 10:30:08;;;;;;;23.20;6.03;;;;;;;6.92;94.76;100394.22;12843007;23;20091;-77
2021/03/12 10:35:21;;;;;;;25.10;4.85;;;;;;;6.95;94.46;100390.81;12814189;23;20012;-77
2021/03/12 10:40:22;;;;;;;26.38;5.53;;;;;;;6.90;93.33;100346.19;12842387;23;20001;-78
2021/03/12 10:45:26;;;;;;;20.08;3.70;;;;;;;7.61;92.90;100427.78;12841547;23;20005;-77
2021/03/12 10:50:28;;;;;;;22.00;3.38;;;;;;;7.71;92.43;100444.50;12841395;23;20016;-77
2021/03/12 10:55:34;;;;;;;20.65;3.97;;;;;;;7.59;92.91;100418.50;12814608;23;20497;-77
2021/03/12 11:00:34;;;;;;;29.70;4.90;;;;;;;7.05;92.21;100325.81;12816314;23;20118;-77
2021/03/12 11:05:35;;;;;;;16.58;4.05;;;;;;;7.32;92.60;100379.84;12841369;23;20016;-76
2021/03/12 11:10:35;;;;;;;16.85;4.65;;;;;;;7.54;94.49;100443.75;12840736;23;20176;-76
2021/03/12 11:15:36;;;;;;;21.02;4.40;;;;;;;7.06;96.97;100354.25;12842153;23;20043;-76
2021/03/12 11:20:36;;;;;;;26.45;4.00;;;;;;;7.09;99.81;100364.31;12813182;23;20120;-78
2021/03/12 11:25:37;;;;;;;22.55;4.35;;;;;;;6.76;100.00;100314.38;12839808;23;20439;-76
2021/03/12 11:30:38;;;;;;;25.75;4.82;;;;;;;6.82;100.00;100359.78;12842661;23;20040;-79
2021/03/12 11:35:39;;;;;;;28.77;4.35;;;;;;;7.29;100.00;100388.56;12816321;23;20013;-77
2021/03/12 11:40:39;;;;;;;24.38;4.18;;;;;;;7.15;100.00;100346.81;12816757;23;20040;-82
2021/03/12 11:45:41;;;;;;;29.87;4.20;;;;;;;7.66;100.00;100366.78;12815631;23;20351;-82
2021/03/12 11:50:43;;;;;;;20.02;4.30;;;;;;;7.58;99.64;100315.50;12844858;23;20565;-84
2021/03/12 11:55:43;;;;;;;18.33;3.45;;;;;;;7.37;97.07;100212.84;12820407;23;20017;-79
2021/03/12 12:00:44;;;;;;;25.95;3.95;;;;;;;8.29;94.81;100310.00;12796833;23;20013;-79
2021/03/12 12:05:46;;;;;;;21.00;3.70;;;;;;;8.48;91.26;100316.53;12818471;23;20013;-79
2021/03/12 12:10:46;;;;;;;23.17;4.30;;;;;;;8.09;91.14;100268.06;12844644;23;20561;-81
2021/03/12 12:15:48;;;;;;;26.05;4.43;;;;;;;8.36;91.72;100304.75;12817944;23;20078;-79
2021/03/12 12:20:49;;;;;;;24.80;3.70;;;;;;;7.73;91.93;100214.34;12819316;23;20009;-80
2021/03/12 12:25:49;;;;;;;15.05;3.45;;;;;;;8.25;95.23;100303.75;12793874;23;20011;-79
2021/03/12 12:30:50;;;;;;;22.20;3.60;;;;;;;7.67;98.78;100269.59;12823676;23;20489;-80
2021/03/12 12:35:51;;;;;;;26.83;4.20;;;;;;;7.00;100.00;100237.38;12820419;23;20624;-80
2021/03/12 12:40:51;;;;;;;13.13;3.45;;;;;;;6.63;100.00;100251.13;12817598;23;20009;-80
2021/03/12 12:45:52;;;;;;;17.33;3.55;;;;;;;6.04;100.00;100187.50;12845932;23;20013;-82
2021/03/12 12:50:52;;;;;;;22.30;3.92;;;;;;;6.78;100.00;100279.09;12821806;23;20005;-80
2021/03/12 12:55:53;;;;;;;10.25;3.03;;;;;;;7.09;100.00;100262.19;12818539;23;20004;-81
2021/03/12 13:00:54;;;;;;;9.85;2.70;;;;;;;7.02;100.00;100245.88;12818549;23;20287;-78
2021/03/12 13:05:55;;;;;;;16.60;4.10;;;;;;;6.81;100.00;100181.69;12844798;23;20015;-80
2021/03/12 13:10:55;;;;;;;21.27;5.28;;;;;;;7.10;100.00;100204.63;12844416;23;20032;-80
2021/03/12 13:15:57;;;;;;;24.15;4.63;;;;;;;6.93;100.00;100242.59;12842512;23;20012;-79
2021/03/12 13:21:04;;;;;;;31.90;5.80;;;;;;;6.89;100.00;100284.72;12842226;23;20020;-79
2021/03/12 13:26:05;;;;;;;4.80;0.93;;;;;;;5.46;100.00;100158.34;12845683;23;20013;-82
2021/03/12 13:31:06;;;;;;;8.52;1.05;;;;;;;5.88;100.00;100290.16;12766240;23;20024;-82
2021/03/12 13:36:06;;;;;;;11.18;1.20;;;;;;;5.45;100.00;100156.78;12847805;23;20066;-77
2021/03/12 13:41:07;;;;;;;11.98;1.48;;;;;;;5.73;100.00;100188.94;12845656;23;20348;-79
2021/03/12 13:46:08;;;;;;;18.73;2.30;;;;;;;5.55;100.00;100112.63;12792864;23;20027;-78
2021/03/12 13:51:09;;;;;;;12.03;2.67;;;;;;;5.86;100.00;100139.50;12793765;23;20009;-79
2021/03/12 13:56:10;;;;;;;14.45;1.80;;;;;;;6.41;100.00;100184.59;12792281;23;20016;-80
2021/03/12 14:01:10;;;;;;;4.03;1.27;;;;;;;6.61;100.00;100194.28;12818187;23;20004;-77
2021/03/12 14:06:11;;;;;;;6.15;1.85;;;;;;;6.58;100.00;100184.22;12818912;23;20024;-76
2021/03/12 14:11:11;;;;;;;8.77;1.67;;;;;;;6.25;100.00;100134.34;12843254;23;20080;-76
2021/03/12 14:16:12;;;;;;;7.10;1.92;;;;;;;7.08;100.00;100212.25;12817406;23;20083;-75
2021/03/12 14:21:12;;;;;;;5.32;1.00;;;;;;;6.69;100.00;100120.81;12844411;23;20397;-77
2021/03/12 14:26:13;;;;;;;3.72;1.05;;;;;;;6.91;100.00;100129.31;12841870;23;20367;-77
2021/03/12 14:31:15;;;;;;;4.35;1.23;;;;;;;7.16;100.00;100135.22;12845425;23;20013;-78
2021/03/12 14:36:15;;;;;;;7.50;1.33;;;;;;;7.69;100.00;100200.06;12816474;23;20012;-76
2021/03/12 14:41:16;;;;;;;11.38;1.80;;;;;;;7.77;100.00;100187.53;12817280;23;20098;-77
2021/03/12 14:46:16;;;;;;;10.57;2.30;;;;;;;7.08;100.00;100077.88;12840151;23;20078;-77
2021/03/12 14:51:17;;;;;;;14.07;2.10;;;;;;;7.91;100.00;100174.31;12842250;23;20628;-75
2021/03/12 14:56:18;;;;;;;9.52;2.08;;;;;;;7.82;100.00;100141.50;12845086;23;20119;-76
2021/03/12 15:01:18;;;;;;;12.65;2.10;;;;;;;8.17;100.00;100189.00;12841977;23;20040;-75
2021/03/12 15:06:19;;;;;;;11.43;1.95;;;;;;;8.03;100.00;100201.06;12790552;23;20108;-75
2021/03/12 15:11:19;;;;;;;14.13;2.58;;;;;;;7.61;100.00;100126.50;12842217;23;20079;-75
2021/03/12 15:16:20;;;;;;;18.10;2.90;;;;;;;7.70;100.00;100133.59;12816682;23;20008;-74
2021/03/12 15:21:21;;;;;;;12.57;2.85;;;;;;;7.68;100.00;100130.47;12843265;23;20008;-74
2021/03/12 15:26:21;;;;;;;11.65;2.38;;;;;;;8.01;99.72;100160.28;12842807;23;20044;-74
2021/03/12 15:31:22;;;;;;;12.88;2.38;;;;;;;8.12;98.61;100170.47;12840186;23;20020;-74
2021/03/12 15:36:22;;;;;;;15.57;2.58;;;;;;;7.91;97.88;100112.44;12842136;23;20023;-74
2021/03/12 15:41:23;;;;;;;16.98;2.63;;;;;;;7.93;97.61;100088.63;12790963;23;20017;-74
2021/03/12 15:46:23;;;;;;;19.05;3.35;;;;;;;8.43;95.61;100170.25;12843427;23;20005;-73
2021/03/12 15:51:24;;;;;;;16.45;3.35;;;;;;;8.49;93.18;100167.22;12843346;23;20044;-74
2021/03/12 15:56:24;;;;;;;20.33;3.15;;;;;;;8.50;93.20;100158.03;12841761;23;20013;-74
2021/03/12 16:01:25;;;;;;;17.73;3.72;;;;;;;8.42;92.66;100157.91;12842527;23;20025;-74
2021/03/12 16:06:26;;;;;;;17.40;3.38;;;;;;;8.21;92.52;100103.69;12790682;23;20020;-74
2021/03/12 16:11:26;;;;;;;22.30;4.03;;;;;;;8.35;91.33;100125.47;12842334;23;20118;-76
2021/03/12 16:16:27;;;;;;;19.48;3.28;;;;;;;8.35;90.45;100130.84;12841076;23;20308;-76
2021/03/12 16:21:28;;;;;;;27.27;4.40;;;;;;;8.23;91.63;100123.75;12842384;23;20013;-76
2021/03/12 16:26:28;;;;;;;21.33;3.70;;;;;;;8.37;90.83;100144.72;12818705;23;20008;-79
2021/03/12 16:31:29;;;;;;;18.05;3.25;;;;;;;8.44;91.88;100166.44;12831524;23;20024;-78
2021/03/12 16:36:29;;;;;;;19.30;3.70;;;;;;;8.31;90.92;100113.09;12842266;23;20343;-78
2021/03/12 16:41:30;;;;;;;23.15;3.70;;;;;;;8.52;91.39;100139.59;12834070;23;20020;-78
2021/03/12 16:46:31;;;;;;;24.88;5.55;;;;;;;8.29;90.18;100102.66;12839666;23;20058;-79
2021/03/12 16:51:31;;;;;;;30.45;5.03;;;;;;;8.33;90.83;100111.59;12818380;23;20001;-79
2021/03/12 16:56:32;;;;;;;20.30;4.28;;;;;;;8.43;89.95;100143.31;12844504;23;20012;-79
2021/03/12 17:01:40;;;;;;;29.58;3.97;;;;;;;8.26;88.92;100138.41;12839951;23;20027;-77
2021/03/12 17:06:41;;;;;;;19.02;4.03;;;;;;;8.28;89.79;100146.91;12843347;23;20154;-79
2021/03/12 17:11:42;;;;;;;22.38;3.72;;;;;;;8.17;91.01;100151.31;12844598;23;20096;-76
2021/03/12 17:16:42;;;;;;;28.05;4.10;;;;;;;7.94;92.23;100154.75;12840221;23;20009;-79
2021/03/12 17:21:43;;;;;;;30.50;4.22;;;;;;;7.94;90.90;100160.16;12817796;23;20017;-78
2021/03/12 17:26:43;;;;;;;19.98;3.30;;;;;;;7.49;90.44;100097.06;12841869;23;20452;-80
2021/03/12 17:31:44;;;;;;;26.23;5.80;;;;;;;7.85;91.42;100162.28;12815606;23;20044;-78
2021/03/12 17:36:44;;;;;;;39.50;7.00;;;;;;;7.51;91.00;100121.72;12842623;23;20020;-80
2021/03/12 17:41:45;;;;;;;24.65;3.97;;;;;;;7.53;90.64;100124.81;12841799;23;20373;-79
2021/03/12 17:46:45;;;;;;;20.35;3.67;;;;;;;7.57;90.34;100147.19;12840700;23;20032;-77
2021/03/12 17:51:46;;;;;;;20.77;4.05;;;;;;;7.62;90.62;100157.66;12843787;23;20109;-79
2021/03/12 17:56:47;;;;;;;26.73;5.82;;;;;;;7.36;91.94;100141.38;12840565;23;20092;-78
2021/03/12 18:01:47;;;;;;;23.40;4.72;;;;;;;7.44;92.59;100159.22;12841572;23;20047;-77
2021/03/12 18:06:48;;;;;;;26.73;5.15;;;;;;;7.37;92.69;100153.72;12842518;23;20008;-78
2021/03/12 18:11:48;;;;;;;21.08;4.53;;;;;;;7.42;92.96;100183.00;12843945;23;20230;-77
2021/03/12 18:16:49;;;;;;;27.25;4.40;;;;;;;7.20;93.22;100142.25;12839853;23;20090;-78
2021/03/12 18:21:49;;;;;;;20.50;3.45;;;;;;;6.91;91.32;100102.44;12843642;23;20091;-77
2021/03/12 18:26:50;;;;;;;24.27;4.25;;;;;;;7.47;91.34;100190.78;12842488;23;20012;-79
2021/03/12 18:31:51;;;;;;;16.85;3.25;;;;;;;7.01;91.12;100126.09;12840238;23;20023;-78
2021/03/12 18:36:51;;;;;;;22.55;3.78;;;;;;;7.41;91.42;100171.47;12843059;23;20072;-79
2021/03/12 18:41:52;;;;;;;18.83;3.78;;;;;;;7.36;91.75;100174.44;12842680;23;20025;-81
2021/03/12 18:46:53;;;;;;;20.50;4.10;;;;;;;7.50;90.99;100216.19;12814360;23;20000;-82
2021/03/12 18:51:54;;;;;;;19.98;4.22;;;;;;;7.55;91.09;100197.06;12813474;23;20009;-80
2021/03/12 18:56:55;;;;;;;21.63;4.20;;;;;;;7.12;90.96;100127.06;12791836;23;20039;-82
2021/03/12 19:01:56;;;;;;;22.67;3.63;;;;;;;6.59;90.72;100040.78;12838734;23;20009;-80
2021/03/12 19:06:57;;;;;;;26.95;3.70;;;;;;;7.42;92.45;100183.00;12816517;23;20098;-79
2021/03/12 19:11:57;;;;;;;21.88;3.78;;;;;;;7.40;92.88;100182.56;12842014;23;20099;-81
2021/03/12 19:16:58;;;;;;;18.23;3.83;;;;;;;6.97;93.73;100141.38;12815793;23;20009;-80
2021/03/12 19:21:59;;;;;;;10.95;3.20;;;;;;;7.30;93.43;100196.56;12842724;23;20098;-78
2021/03/12 19:27:02;;;;;;;13.80;3.30;;;;;;;7.14;92.92;100177.81;12841716;23;20047;-79
2021/03/12 19:32:03;;;;;;;20.92;3.05;;;;;;;7.19;93.63;100191.72;12839021;23;20016;-79
2021/03/12 19:37:05;;;;;;;22.10;3.38;;;;;;;7.06;93.67;100176.88;12814313;23;20017;-82
2021/03/12 19:42:06;;;;;;;19.77;3.23;;;;;;;6.69;94.09;100131.53;12816617;23;20013;-78
2021/03/12 19:47:07;;;;;;;15.52;3.00;;;;;;;7.05;94.07;100183.38;12840762;23;20198;-79
2021/03/12 19:52:07;;;;;;;21.98;3.75;;;;;;;6.26;93.43;100054.63;12841100;23;20005;-78
2021/03/12 19:57:08;;;;;;;22.70;4.05;;;;;;;6.59;93.78;100110.59;12845911;23;20324;-76
2021/03/12 20:02:08;;;;;;;23.67;4.32;;;;;;;7.04;94.48;100176.44;12843072;23;20494;-77
2021/03/12 20:07:09;;;;;;;19.05;3.70;;;;;;;6.93;94.98;100156.63;12846648;23;20044;-76
2021/03/12 20:12:10;;;;;;;22.85;4.07;;;;;;;6.81;95.20;100132.56;12819340;23;20015;-78
2021/03/12 20:17:10;;;;;;;17.20;4.65;;;;;;;6.99;96.44;100171.34;12844932;23;20016;-79
2021/03/12 20:22:11;;;;;;;14.70;3.33;;;;;;;6.82;96.38;100151.03;12819302;23;20004;-78
2021/03/12 20:27:13;;;;;;;21.58;3.22;;;;;;;6.82;97.23;100167.16;12822456;23;20048;-80
2021/03/12 20:32:13;;;;;;;17.20;4.03;;;;;;;6.89;97.82;100177.25;12839772;23;20040;-77
2021/03/12 20:37:14;;;;;;;24.25;5.13;;;;;;;6.82;97.60;100161.78;12848105;23;20041;-77
2021/03/12 20:42:14;;;;;;;19.08;4.30;;;;;;;6.91;97.70;100172.31;12845881;23;20492;-78
2021/03/12 20:47:16;;;;;;;24.53;4.47;;;;;;;6.82;97.92;100152.91;12846615;23;20043;-77
2021/03/12 20:52:17;;;;;;;24.48;4.63;;;;;;;6.73;98.61;100148.53;12844690;23;20016;-77
2021/03/12 20:57:17;;;;;;;20.08;4.18;;;;;;;6.67;98.03;100141.84;12847248;23;20028;-75
2021/03/12 21:02:18;;;;;;;18.75;3.60;;;;;;;6.70;97.70;100138.50;12850705;23;20398;-77
2021/03/12 21:07:18;;;;;;;20.25;4.32;;;;;;;6.83;98.35;100157.19;12849845;23;20044;-76
2021/03/12 21:12:19;;;;;;;23.15;4.30;;;;;;;6.53;98.31;100101.25;12849859;23;20011;-75
2021/03/12 21:17:19;;;;;;;24.98;4.45;;;;;;;6.51;97.70;100103.50;12847833;23;20048;-77
2021/03/12 21:22:20;;;;;;;23.30;3.97;;;;;;;6.94;96.80;100158.19;12848685;23;20012;-76
2021/03/12 21:27:20;;;;;;;22.95;4.53;;;;;;;7.02;97.15;100165.28;12849013;23;20024;-75
2021/03/12 21:32:21;;;;;;;16.63;3.22;;;;;;;6.59;96.49;100099.88;12849495;23;20110;-76
2021/03/12 21:37:21;;;;;;;19.13;3.13;;;;;;;7.07;96.29;100167.69;12820707;23;20017;-78
2021/03/12 21:42:22;;;;;;;25.77;3.88;;;;;;;7.06;96.65;100166.13;12822456;23;20020;-76
2021/03/12 21:47:22;;;;;;;19.45;3.20;;;;;;;7.04;97.09;100163.00;12848476;23;20351;-76
2021/03/12 21:52:23;;;;;;;18.67;3.53;;;;;;;7.02;97.45;100149.16;12849088;23;20009;-77
2021/03/12 21:57:24;;;;;;;20.27;4.32;;;;;;;6.91;98.10;100153.50;12848237;23;20012;-76
2021/03/12 22:02:24;;;;;;;22.08;3.97;;;;;;;6.84;99.64;100153.34;12796933;23;20497;-75
2021/03/12 22:07:24;;;;;;;19.33;3.35;;;;;;;6.84;100.00;100137.22;12772676;23;20106;-79
2021/03/12 22:12:25;;;;;;;25.30;4.38;;;;;;;6.47;100.00;100075.81;12850498;23;20009;-76
2021/03/12 22:17:25;;;;;;;29.25;4.45;;;;;;;6.77;100.00;100117.16;12847243;23;20004;-77
2021/03/12 22:22:26;;;;;;;31.35;4.88;;;;;;;6.58;100.00;100071.44;12821649;23;20112;-77
2021/03/12 22:27:26;;;;;;;23.33;4.32;;;;;;;6.51;100.00;100047.13;12847338;23;20043;-74
2021/03/12 22:32:27;;;;;;;29.85;4.72;;;;;;;6.72;100.00;100050.25;12849902;23;20067;-75
2021/03/12 22:37:27;;;;;;;28.95;4.90;;;;;;;6.74;100.00;100037.25;12845466;23;20792;-75
2021/03/12 22:42:28;;;;;;;20.75;4.00;;;;;;;6.62;99.66;99986.38;12846112;23;20035;-75
2021/03/12 22:47:28;;;;;;;24.48;3.92;;;;;;;7.03;100.00;100059.34;12797680;23;20055;-75
2021/03/12 22:52:28;;;;;;;27.50;4.05;;;;;;;6.55;99.37;99970.13;12820620;23;20146;-75
2021/03/12 22:57:30;;;;;;;15.10;3.97;;;;;;;6.84;98.91;99992.16;12845871;23;20156;-75
2021/03/12 23:02:30;;;;;;;24.63;4.75;;;;;;;7.02;99.44;100030.91;12819362;23;20016;-74